createdAt,value
2022-08-03T00:04:49.946Z,0
2022-08-03T00:10:14.859Z,0
2022-08-03T00:15:48.859Z,0
2022-08-03T00:21:11.259Z,0
2022-08-03T00:26:34.111Z,0
2022-08-03T00:32:00.717Z,0
2022-08-03T00:37:41.985Z,0
2022-08-03T00:43:04.958Z,0
2022-08-03T00:48:34.367Z,0
2022-08-03T00:53:59.413Z,0
2022-08-03T00:59:22.128Z,0
2022-08-03T01:04:58.173Z,0
2022-08-03T01:10:20.618Z,0
2022-08-03T01:21:11.859Z,0
2022-08-03T01:26:34.645Z,0
2022-08-03T01:33:03.408Z,0
2022-08-03T01:38:26.905Z,0
2022-08-03T01:44:30.868Z,0
2022-08-03T01:49:53.798Z,0
2022-08-03T01:55:16.561Z,0
2022-08-03T02:00:44.419Z,0
2022-08-03T02:07:10.248Z,0
2022-08-03T02:12:33.255Z,0
2022-08-03T02:17:58.385Z,0
2022-08-03T02:23:23.957Z,0
2022-08-03T02:28:46.365Z,0
2022-08-03T02:34:08.902Z,0
2022-08-03T02:39:31.324Z,0
2022-08-03T02:44:54.666Z,0
2022-08-03T02:50:17.444Z,0
2022-08-03T02:55:46.023Z,0
2022-08-03T03:01:17.694Z,0
2022-08-03T03:06:43.245Z,0
2022-08-03T03:23:03.530Z,0
2022-08-03T03:28:26.043Z,0
2022-08-03T03:33:48.546Z,0
2022-08-03T03:39:16.236Z,0
2022-08-03T03:50:24.777Z,6
2022-08-03T03:56:02.972Z,14
2022-08-03T04:01:28.934Z,20
2022-08-03T04:06:59.165Z,20.3
2022-08-03T04:12:21.675Z,19.1
2022-08-03T04:18:13.172Z,26
2022-08-03T04:23:36.000Z,30.4
2022-08-03T04:29:07.637Z,39.9
2022-08-03T04:34:31.004Z,51.6
2022-08-03T04:39:57.779Z,72.6
2022-08-03T04:45:20.635Z,95.9
2022-08-03T04:50:42.999Z,66.1
2022-08-03T05:01:31.430Z,122.2
2022-08-03T05:06:56.078Z,109.9
2022-08-03T05:12:21.007Z,137.8
2022-08-03T05:17:46.493Z,115.1
2022-08-03T05:23:08.998Z,98.4
2022-08-03T05:28:31.413Z,117.3
2022-08-03T05:33:53.912Z,136.2
2022-08-03T05:39:16.576Z,121.2
2022-08-03T05:44:39.002Z,146.8
2022-08-03T05:50:01.532Z,179.6
2022-08-03T05:56:03.690Z,218.2
2022-08-03T06:01:39.895Z,572.5
2022-08-03T06:07:02.921Z,230
2022-08-03T06:12:25.528Z,228.9
2022-08-03T06:17:48.258Z,332.2
2022-08-03T06:23:21.997Z,775.9
2022-08-03T06:28:54.610Z,1231.1
2022-08-03T06:34:35.839Z,1275.9
2022-08-03T06:40:44.778Z,1199.6
2022-08-03T06:52:06.989Z,1432.6
2022-08-03T06:57:30.322Z,1222.2
2022-08-03T07:03:05.688Z,1148.9
2022-08-03T07:08:34.677Z,1380.8
2022-08-03T07:13:57.824Z,1662.3
2022-08-03T07:19:20.829Z,1360
2022-08-03T07:24:43.666Z,1064.6
2022-08-03T07:30:05.733Z,1150
2022-08-03T07:35:30.630Z,1206.8
2022-08-03T07:40:59.847Z,782.1
2022-08-03T07:46:26.877Z,480.3
2022-08-03T07:51:50.259Z,772.3
2022-08-03T07:57:13.164Z,464.7
2022-08-03T08:02:35.800Z,1293.4
2022-08-03T08:08:01.471Z,1455.2
2022-08-03T08:13:27.412Z,1183.6
2022-08-03T08:18:49.772Z,1660.8
2022-08-03T08:24:20.451Z,562.3
2022-08-03T08:29:55.388Z,2050.8
2022-08-03T08:35:28.132Z,2033
2022-08-03T08:40:51.197Z,2070.5
2022-08-03T08:46:24.176Z,1955.1
2022-08-03T08:52:01.590Z,2178.8
2022-08-03T08:57:43.497Z,2298.3
2022-08-03T09:03:06.717Z,2088.9
2022-08-03T09:08:29.434Z,2020.5
2022-08-03T09:15:17.667Z,2435.4
2022-08-03T09:20:40.712Z,2190.4
2022-08-03T09:26:06.552Z,2127.3
2022-08-03T09:31:29.171Z,2126.8
2022-08-03T09:37:23.019Z,2033.4
2022-08-03T09:43:36.677Z,2325
2022-08-03T09:48:59.615Z,2336.2
2022-08-03T09:54:29.980Z,2090.3
2022-08-03T10:00:08.262Z,2274
2022-08-03T10:06:19.518Z,1984.4
2022-08-03T10:11:42.778Z,1988.3
2022-08-03T10:17:05.538Z,2392.4
2022-08-03T10:22:28.003Z,2585.8
2022-08-03T10:27:50.254Z,2691.5
2022-08-03T10:33:52.987Z,2780.2
2022-08-03T10:39:16.762Z,2553.4
2022-08-03T10:44:39.042Z,2585
2022-08-03T10:50:11.840Z,2622.9
2022-08-03T10:55:35.725Z,2651.2
2022-08-03T11:00:59.046Z,2299
2022-08-03T11:11:59.727Z,2498.9
2022-08-03T11:17:22.359Z,2793.1
2022-08-03T11:22:44.389Z,2199.9
2022-08-03T11:28:07.245Z,2121.5
2022-08-03T11:38:56.597Z,2547
2022-08-03T12:14:52.386Z,2381.5
2022-08-03T12:20:17.611Z,2250.9
2022-08-03T12:25:50.179Z,2104.2
2022-08-03T12:48:15.274Z,2361.6
2022-08-03T13:04:33.907Z,2216.7
2022-08-03T13:09:57.284Z,2428.3
2022-08-03T13:15:48.416Z,2453.6
2022-08-03T13:26:57.292Z,2472.6
2022-08-03T13:44:30.302Z,2619.8
2022-08-03T13:50:03.737Z,3368.7
2022-08-03T14:01:55.786Z,2875.2
2022-08-03T14:07:25.549Z,2905.8
2022-08-03T14:13:07.262Z,3121.7
2022-08-03T14:24:24.513Z,3107.1
2022-08-03T14:29:48.430Z,2801.2
2022-08-03T14:35:11.851Z,2828.1
2022-08-03T14:40:35.096Z,2587.2
2022-08-03T14:51:35.427Z,3174.3
2022-08-03T15:03:10.068Z,2633.2
2022-08-03T15:08:39.763Z,2878.5
2022-08-03T15:14:20.124Z,2582.2
2022-08-03T15:20:24.382Z,2310.4
2022-08-03T15:26:37.864Z,2205.1
2022-08-03T15:32:09.811Z,2253
2022-08-03T15:37:32.203Z,1439.9
2022-08-03T15:44:29.100Z,393.2
2022-08-03T15:49:50.651Z,261.6
2022-08-03T15:55:30.401Z,233.6
2022-08-03T16:00:52.471Z,204.9
2022-08-03T16:06:14.995Z,181.8
2022-08-03T16:11:38.037Z,161
2022-08-03T16:22:56.533Z,126
2022-08-03T16:28:19.875Z,124.4
2022-08-03T16:33:44.513Z,106.7
2022-08-03T16:39:06.761Z,116
2022-08-03T16:44:29.884Z,119
2022-08-03T16:49:56.598Z,115.6
2022-08-03T16:55:54.082Z,109.8
2022-08-03T17:01:25.102Z,107.7
2022-08-03T17:07:00.765Z,105.8
2022-08-03T17:12:27.329Z,100.8
2022-08-03T17:17:56.158Z,96.5
2022-08-03T17:23:35.902Z,91.3
2022-08-03T17:28:58.682Z,86.6
2022-08-03T17:34:26.887Z,82.1
2022-08-03T17:40:00.004Z,82.3
2022-08-03T17:45:22.730Z,75.5
2022-08-03T17:50:56.068Z,69.3
2022-08-03T17:56:46.498Z,67.3
2022-08-03T18:02:30.879Z,64.2
2022-08-03T18:08:01.790Z,57.7
2022-08-03T18:13:30.629Z,53.5
2022-08-03T18:18:54.874Z,51.1
2022-08-03T18:24:25.104Z,49.8
2022-08-03T18:29:52.913Z,40.4
2022-08-03T18:35:15.571Z,40.5
2022-08-03T18:40:49.026Z,33.4
2022-08-03T18:46:20.969Z,32.9
2022-08-03T18:51:47.302Z,27.8
2022-08-03T18:57:10.912Z,22.2
2022-08-03T19:02:36.243Z,25.5
2022-08-03T19:08:00.111Z,22.1
2022-08-03T19:13:36.618Z,14.6
2022-08-03T19:24:40.318Z,6
2022-08-03T19:30:26.085Z,0
2022-08-03T19:36:00.325Z,0
2022-08-03T19:41:24.965Z,0
2022-08-03T19:46:47.703Z,0
2022-08-03T19:52:16.989Z,0
2022-08-03T19:57:57.329Z,0
2022-08-03T20:03:24.938Z,0
2022-08-03T20:08:51.829Z,0
2022-08-03T20:14:26.802Z,0
2022-08-03T20:19:56.972Z,0
2022-08-03T20:25:21.374Z,0
2022-08-03T20:30:43.941Z,0
2022-08-03T20:36:06.784Z,0
2022-08-03T20:41:34.497Z,0
2022-08-03T20:47:01.068Z,0
2022-08-03T20:52:26.388Z,0
2022-08-03T20:57:52.011Z,0
2022-08-03T21:08:48.642Z,0
2022-08-03T21:14:11.278Z,0
2022-08-03T21:19:33.928Z,0
2022-08-03T21:25:14.201Z,0
2022-08-03T21:36:00.900Z,0
2022-08-03T21:41:26.430Z,0
2022-08-03T21:46:48.824Z,0
2022-08-03T21:52:12.095Z,0
2022-08-03T21:57:47.888Z,0
2022-08-03T22:03:18.056Z,0
2022-08-03T22:09:04.538Z,0
2022-08-03T22:14:27.473Z,0
2022-08-03T22:19:49.616Z,0
2022-08-03T22:25:15.110Z,0
2022-08-03T22:30:37.525Z,0
2022-08-03T22:36:08.085Z,0
2022-08-03T22:41:30.363Z,0
2022-08-03T22:47:00.314Z,0
2022-08-03T22:52:26.175Z,0
2022-08-03T22:57:56.513Z,0
2022-08-03T23:03:19.527Z,0
2022-08-03T23:08:42.330Z,0
2022-08-03T23:14:04.689Z,0
2022-08-03T23:19:30.313Z,0
2022-08-03T23:25:07.430Z,0
2022-08-03T23:36:31.903Z,0
2022-08-03T23:41:55.487Z,0
2022-08-03T23:47:47.646Z,0
2022-08-03T23:53:10.336Z,0
2022-08-03T23:58:32.908Z,0
